ZA-0111 weather

Kudu Private Nature Reserve
Mpumalanga, South Africa

Public forecast

Using degrees Celsius for public forecast. Weather courtesy of forecast.io.

Closest aviation weather report (METAR) to Kudu Private Nature Reserve

Closest report is Kruger Mpumalanga International Airport, 44.7 nm (82.8 km) ESE. Retrieved 2020/04/08 18:00 UTC (36 minutes ago):

FAKN 081800Z 00000KT 5000 BCFG SCT003 OVC008 15/14 Q1028 NOSIG

Closest aviation forecast (TAF) to Kudu Private Nature Reserve

Forecast is more than 12 hours old.

Closest forecast is Kruger Mpumalanga International Airport, 44.7 nm (82.8 km) ESE. Retrieved 2017/06/05 04:55 UTC (3 years ago):

TAF FAKN 050300Z 0504/0515 25006KT CAVOK BECMG 0511/0513 13005KT SCT030 BECMG 0513/0515 07005KT TX22/0513ZTN08/0504Z